createdAt,value
2018-03-07T00:00:58.475Z,35.23
2018-03-07T00:03:28.267Z,34.97
2018-03-07T00:05:58.748Z,39.40
2018-03-07T00:08:28.450Z,37.03
2018-03-07T00:10:58.173Z,34.37
2018-03-07T00:13:27.946Z,35.43
2018-03-07T00:15:57.664Z,36.67
2018-03-07T00:18:27.402Z,33.67
2018-03-07T00:20:58.004Z,35.77
2018-03-07T00:23:27.702Z,34.47
2018-03-07T00:25:57.480Z,40.23
2018-03-07T00:28:27.505Z,32.80
2018-03-07T00:30:57.224Z,34.47
2018-03-07T00:33:26.931Z,31.67
2018-03-07T00:35:56.682Z,30.70
2018-03-07T00:38:27.131Z,30.53
2018-03-07T00:40:57.705Z,30.43
2018-03-07T00:43:27.414Z,28.27
2018-03-07T00:45:57.320Z,29.07
2018-03-07T00:48:27.081Z,27.23
2018-03-07T00:50:56.784Z,30.03
2018-03-07T00:53:26.504Z,33.00
2018-03-07T00:55:56.201Z,31.63
2018-03-07T00:58:26.004Z,32.23
2018-03-07T01:00:55.707Z,27.37
2018-03-07T01:03:25.383Z,29.30
2018-03-07T01:05:55.176Z,34.20
2018-03-07T01:08:25.073Z,27.93
2018-03-07T01:10:54.838Z,28.00
2018-03-07T01:13:25.425Z,28.47
2018-03-07T01:15:55.136Z,27.50
2018-03-07T01:18:24.899Z,27.63
2018-03-07T01:20:54.819Z,27.60
2018-03-07T01:23:24.541Z,33.80
2018-03-07T01:25:54.253Z,31.07
2018-03-07T01:28:24.017Z,30.47
2018-03-07T01:30:54.544Z,31.80
2018-03-07T01:33:24.408Z,28.60
2018-03-07T01:35:54.246Z,34.17
2018-03-07T01:38:24.073Z,35.27
2018-03-07T01:40:53.865Z,48.70
2018-03-07T01:43:23.588Z,40.37
2018-03-07T01:45:53.340Z,38.90
2018-03-07T01:48:23.057Z,36.13
2018-03-07T01:50:52.798Z,36.53
2018-03-07T01:53:22.488Z,33.47
2018-03-07T01:55:52.183Z,31.33
2018-03-07T01:58:22.048Z,33.20
2018-03-07T02:00:51.956Z,31.73
2018-03-07T02:03:21.689Z,32.90
2018-03-07T02:05:51.526Z,30.40
2018-03-07T02:08:21.246Z,30.87
2018-03-07T02:10:51.042Z,33.07
2018-03-07T02:13:20.725Z,32.37
2018-03-07T02:15:50.484Z,35.07
2018-03-07T02:18:20.170Z,36.40
2018-03-07T02:20:49.936Z,37.27
2018-03-07T02:23:19.617Z,34.33
2018-03-07T02:25:49.451Z,38.83
2018-03-07T02:28:19.905Z,34.43
2018-03-07T02:30:49.867Z,35.17
2018-03-07T02:33:19.574Z,34.33
2018-03-07T02:35:49.257Z,37.37
2018-03-07T02:38:19.714Z,35.80
2018-03-07T02:40:49.498Z,36.00
2018-03-07T02:43:19.234Z,39.07
2018-03-07T02:45:49.747Z,33.17
2018-03-07T02:48:19.474Z,35.07
2018-03-07T02:50:49.317Z,35.10
2018-03-07T02:53:19.001Z,33.13
2018-03-07T02:55:48.717Z,41.00
2018-03-07T02:58:18.525Z,32.80
2018-03-07T03:00:48.377Z,31.60
2018-03-07T03:03:18.080Z,31.20
2018-03-07T03:05:47.907Z,30.27
2018-03-07T03:08:17.636Z,32.87
2018-03-07T03:10:47.388Z,35.30
2018-03-07T03:13:17.917Z,34.07
2018-03-07T03:15:47.728Z,34.33
2018-03-07T03:18:17.398Z,32.80
2018-03-07T03:20:47.125Z,35.23
2018-03-07T03:23:16.862Z,37.37
2018-03-07T03:25:46.632Z,37.33
2018-03-07T03:28:16.340Z,35.40
2018-03-07T03:30:46.019Z,32.63
2018-03-07T03:33:15.864Z,35.17
2018-03-07T03:35:45.572Z,32.80
2018-03-07T03:38:15.265Z,32.60
2018-03-07T03:40:45.888Z,31.10
2018-03-07T03:43:15.617Z,33.27
2018-03-07T03:45:46.150Z,34.67
2018-03-07T03:48:15.876Z,34.37
2018-03-07T03:50:46.336Z,33.93
2018-03-07T03:53:16.055Z,40.50
2018-03-07T03:55:46.531Z,31.30
2018-03-07T03:58:16.464Z,36.47
2018-03-07T04:00:46.200Z,41.70
2018-03-07T04:03:15.963Z,28.50
2018-03-07T04:05:46.423Z,35.10
2018-03-07T04:08:16.256Z,31.47
2018-03-07T04:10:45.933Z,33.50
2018-03-07T04:13:16.547Z,34.73
2018-03-07T04:15:46.264Z,30.03
2018-03-07T04:18:15.972Z,36.10
2018-03-07T04:20:45.629Z,33.43
2018-03-07T04:23:15.348Z,30.07
2018-03-07T04:25:45.150Z,34.53
2018-03-07T04:28:14.907Z,32.20
2018-03-07T04:30:44.619Z,39.07
2018-03-07T04:33:14.450Z,32.70
2018-03-07T04:35:44.916Z,32.63
2018-03-07T04:38:14.775Z,35.30
2018-03-07T04:40:44.517Z,36.23
2018-03-07T04:43:14.183Z,39.23
2018-03-07T04:45:44.013Z,39.77
2018-03-07T04:48:13.761Z,34.23
2018-03-07T04:50:43.497Z,37.20
2018-03-07T04:53:13.275Z,35.13
2018-03-07T04:55:43.098Z,39.13
2018-03-07T04:58:12.823Z,33.70
2018-03-07T05:00:42.592Z,32.33
2018-03-07T05:03:13.268Z,32.50
2018-03-07T05:05:43.775Z,32.77
2018-03-07T05:08:13.590Z,34.53
2018-03-07T05:10:43.316Z,35.20
2018-03-07T05:13:13.185Z,31.33
2018-03-07T05:15:42.870Z,34.00
2018-03-07T05:18:12.581Z,32.70
2018-03-07T05:20:42.263Z,34.80
2018-03-07T05:23:12.137Z,33.93
2018-03-07T05:25:41.810Z,38.60
2018-03-07T05:28:11.494Z,36.97
2018-03-07T05:30:41.985Z,35.00
2018-03-07T05:33:11.751Z,38.00
2018-03-07T05:35:41.539Z,35.07
2018-03-07T05:38:11.286Z,38.03
2018-03-07T05:40:41.026Z,31.77
2018-03-07T05:43:11.486Z,32.73
2018-03-07T05:45:41.180Z,38.27
2018-03-07T05:48:11.009Z,33.60
2018-03-07T05:50:40.707Z,33.57
2018-03-07T05:53:10.500Z,36.13
2018-03-07T05:55:40.269Z,35.73
2018-03-07T05:58:09.989Z,34.57
2018-03-07T06:00:39.740Z,29.73
2018-03-07T06:03:10.343Z,34.17
2018-03-07T06:05:40.072Z,33.17
2018-03-07T06:08:09.836Z,32.43
2018-03-07T06:10:39.624Z,32.60
2018-03-07T06:13:09.478Z,33.03
2018-03-07T06:15:39.343Z,31.97
2018-03-07T06:18:09.070Z,29.37
2018-03-07T06:20:38.766Z,33.83
2018-03-07T06:23:08.652Z,30.73
2018-03-07T06:25:39.180Z,31.80
2018-03-07T06:28:09.733Z,31.87
2018-03-07T06:30:40.331Z,32.67
2018-03-07T06:33:10.139Z,33.13
2018-03-07T06:35:39.976Z,27.47
2018-03-07T06:38:09.726Z,29.37
2018-03-07T06:40:39.680Z,30.43
2018-03-07T06:43:10.183Z,32.20
2018-03-07T06:45:40.089Z,31.93
2018-03-07T06:48:09.965Z,28.20
2018-03-07T06:50:40.544Z,31.73
2018-03-07T06:53:10.243Z,28.43
2018-03-07T06:55:39.988Z,27.43
2018-03-07T07:01:09.576Z,30.10
2018-03-07T07:03:39.270Z,27.23
2018-03-07T07:06:09.101Z,29.60
2018-03-07T07:08:38.883Z,30.83
2018-03-07T07:11:09.356Z,27.17
2018-03-07T07:13:39.168Z,25.63
2018-03-07T07:16:08.906Z,29.57
2018-03-07T07:18:38.645Z,23.27
2018-03-07T07:21:08.449Z,29.63
2018-03-07T07:23:38.253Z,26.13
2018-03-07T07:26:08.032Z,25.17
2018-03-07T07:28:37.738Z,30.33
2018-03-07T07:31:07.527Z,28.80
2018-03-07T07:33:37.329Z,28.27
2018-03-07T07:36:07.090Z,29.57
2018-03-07T07:38:36.924Z,29.60
2018-03-07T07:41:06.661Z,30.07
2018-03-07T07:43:36.395Z,31.53
2018-03-07T07:46:07.512Z,28.07
2018-03-07T07:48:37.336Z,32.97
2018-03-07T07:51:07.096Z,36.00
2018-03-07T07:53:37.616Z,32.60
2018-03-07T07:56:07.393Z,25.10
2018-03-07T07:58:37.156Z,34.50
2018-03-07T08:01:06.939Z,34.30
2018-03-07T08:03:36.696Z,29.80
2018-03-07T08:06:06.477Z,30.77
2018-03-07T08:08:36.336Z,32.00
2018-03-07T08:11:06.174Z,32.07
2018-03-07T08:13:36.635Z,27.93
2018-03-07T08:16:07.582Z,28.70
2018-03-07T08:18:37.817Z,26.37
2018-03-07T08:21:08.356Z,26.33
2018-03-07T08:23:38.211Z,28.40
2018-03-07T08:26:07.898Z,23.43
2018-03-07T08:28:37.694Z,28.53
2018-03-07T08:31:07.564Z,30.77
2018-03-07T08:33:38.161Z,27.27
2018-03-07T08:36:08.000Z,24.37
2018-03-07T08:38:37.897Z,26.07
2018-03-07T08:41:07.685Z,38.10
2018-03-07T08:43:38.190Z,27.37
2018-03-07T08:46:08.071Z,26.57
2018-03-07T08:48:37.966Z,27.60
2018-03-07T08:51:08.545Z,30.00
2018-03-07T08:53:38.296Z,32.17
2018-03-07T08:56:08.065Z,31.30
2018-03-07T08:58:37.816Z,28.17
2018-03-07T09:01:07.605Z,28.33
2018-03-07T09:03:37.403Z,30.03
2018-03-07T09:06:07.230Z,26.50
2018-03-07T09:08:36.970Z,25.07
2018-03-07T09:11:06.765Z,29.00
2018-03-07T09:13:36.495Z,23.93
2018-03-07T09:16:07.027Z,23.03
2018-03-07T09:18:36.766Z,27.30
2018-03-07T09:21:07.363Z,30.47
2018-03-07T09:23:37.181Z,24.83
2018-03-07T09:26:07.012Z,23.63
2018-03-07T09:28:36.781Z,27.03
2018-03-07T09:31:07.456Z,23.70
2018-03-07T09:33:37.238Z,23.60
2018-03-07T09:36:07.199Z,19.77
2018-03-07T09:38:36.972Z,24.27
2018-03-07T09:41:06.904Z,21.20
2018-03-07T09:43:36.731Z,20.90
2018-03-07T09:46:06.634Z,22.40
2018-03-07T09:48:36.405Z,20.53
2018-03-07T09:51:06.965Z,20.13
2018-03-07T09:53:36.912Z,16.63
2018-03-07T09:56:06.797Z,22.20
2018-03-07T09:58:36.687Z,16.13
2018-03-07T10:01:06.624Z,22.53
2018-03-07T10:03:37.285Z,19.47
2018-03-07T10:06:07.039Z,18.97
2018-03-07T10:08:36.817Z,16.67
2018-03-07T10:11:06.812Z,18.83
2018-03-07T10:13:36.530Z,19.73
2018-03-07T10:16:06.306Z,18.70
2018-03-07T10:18:36.965Z,18.63
2018-03-07T10:21:06.728Z,16.93
2018-03-07T10:23:36.448Z,17.80
2018-03-07T10:26:06.264Z,20.23
2018-03-07T10:28:36.065Z,21.00
2018-03-07T10:31:05.910Z,18.00
2018-03-07T10:33:35.657Z,16.60
2018-03-07T10:36:05.522Z,19.77
2018-03-07T10:38:35.465Z,20.03
2018-03-07T10:41:05.320Z,15.83
2018-03-07T10:43:35.200Z,14.27
2018-03-07T10:46:05.104Z,16.90
2018-03-07T10:48:34.855Z,15.60
2018-03-07T10:51:04.660Z,16.50
2018-03-07T10:53:35.197Z,15.60
2018-03-07T10:56:05.780Z,14.83
2018-03-07T10:58:35.569Z,14.77
2018-03-07T11:01:05.374Z,17.23
2018-03-07T11:03:35.157Z,18.40
2018-03-07T11:06:05.120Z,16.60
2018-03-07T11:08:34.985Z,17.00
2018-03-07T11:11:04.925Z,15.43
2018-03-07T11:13:34.683Z,15.33
2018-03-07T11:16:04.523Z,16.30
2018-03-07T11:18:35.038Z,12.47
2018-03-07T11:21:04.837Z,11.87
2018-03-07T11:23:34.636Z,10.40
2018-03-07T11:26:04.725Z,10.47
2018-03-07T11:28:34.557Z,11.07
2018-03-07T11:31:04.461Z,11.30
2018-03-07T11:33:34.217Z,15.60
2018-03-07T11:36:04.851Z,11.40
2018-03-07T11:38:34.634Z,14.10
2018-03-07T11:41:04.400Z,12.70
2018-03-07T11:43:34.933Z,13.60
2018-03-07T11:46:04.795Z,15.50
2018-03-07T11:48:34.576Z,18.77
2018-03-07T11:51:04.575Z,17.13
2018-03-07T11:53:34.481Z,17.63
2018-03-07T11:56:04.262Z,17.70
2018-03-07T11:58:34.016Z,17.77
2018-03-07T12:01:03.785Z,21.30
2018-03-07T12:03:33.706Z,15.70
2018-03-07T12:06:03.506Z,16.67
2018-03-07T12:08:33.212Z,16.10
2018-03-07T12:11:03.053Z,18.43
2018-03-07T12:13:32.825Z,16.57
2018-03-07T12:16:03.431Z,16.13
2018-03-07T12:18:33.157Z,16.43
2018-03-07T12:21:02.946Z,17.93
2018-03-07T12:23:32.663Z,17.07
2018-03-07T12:26:02.525Z,15.87
2018-03-07T12:28:32.286Z,14.70
2018-03-07T12:31:02.780Z,18.53
2018-03-07T12:33:32.512Z,16.60
2018-03-07T12:36:02.217Z,18.40
2018-03-07T12:38:32.025Z,16.83
2018-03-07T12:41:01.779Z,16.53
2018-03-07T12:43:31.620Z,17.83
2018-03-07T12:46:02.146Z,18.13
2018-03-07T12:48:31.861Z,15.27
2018-03-07T12:51:01.635Z,19.40
2018-03-07T12:53:31.368Z,16.87
2018-03-07T12:56:01.141Z,15.00
2018-03-07T12:58:30.949Z,14.03
2018-03-07T13:01:00.712Z,16.03
2018-03-07T13:03:30.385Z,15.10
2018-03-07T13:06:00.196Z,17.67
2018-03-07T13:08:29.906Z,14.77
2018-03-07T13:10:58.870Z,13.40
2018-03-07T13:13:28.665Z,14.93
2018-03-07T13:15:58.447Z,12.70
2018-03-07T13:18:28.137Z,10.03
2018-03-07T13:20:57.924Z,11.60
2018-03-07T13:23:27.930Z,12.67
2018-03-07T13:25:57.742Z,9.30
2018-03-07T13:28:28.180Z,11.47
2018-03-07T13:30:58.298Z,8.57
2018-03-07T13:33:29.025Z,11.67
2018-03-07T13:35:58.816Z,10.93
2018-03-07T13:38:28.588Z,11.27
2018-03-07T13:40:58.307Z,11.63
2018-03-07T13:43:28.203Z,11.90
2018-03-07T13:45:57.926Z,14.03
2018-03-07T13:48:27.653Z,13.93
2018-03-07T13:50:57.361Z,16.00
2018-03-07T13:53:27.179Z,12.03
2018-03-07T13:55:57.165Z,11.43
2018-03-07T13:58:27.025Z,10.10
2018-03-07T14:00:56.832Z,13.87
2018-03-07T14:03:26.714Z,12.47
2018-03-07T14:05:57.252Z,11.53
2018-03-07T14:08:27.748Z,12.90
2018-03-07T14:10:57.469Z,14.93
2018-03-07T14:13:27.208Z,15.73
2018-03-07T14:15:57.034Z,11.93
2018-03-07T14:18:26.847Z,11.37
2018-03-07T14:20:56.533Z,14.10
2018-03-07T14:23:26.391Z,13.87
2018-03-07T14:25:56.121Z,15.00
2018-03-07T14:28:25.888Z,14.67
2018-03-07T14:30:56.389Z,14.93
2018-03-07T14:33:26.118Z,11.97
2018-03-07T14:35:55.845Z,13.87
2018-03-07T14:38:25.648Z,14.13
2018-03-07T14:40:55.581Z,13.23
2018-03-07T14:43:25.432Z,11.87
2018-03-07T14:45:56.001Z,13.70
2018-03-07T14:48:25.707Z,14.13
2018-03-07T14:50:56.225Z,13.10
2018-03-07T14:53:25.968Z,11.07
2018-03-07T14:55:56.657Z,14.17
2018-03-07T14:58:26.405Z,12.10
2018-03-07T15:00:57.901Z,13.23
2018-03-07T15:03:28.504Z,13.00
2018-03-07T15:05:58.341Z,13.70
2018-03-07T15:08:28.204Z,11.67
2018-03-07T15:10:57.985Z,11.50
2018-03-07T15:13:27.746Z,11.80
2018-03-07T15:15:57.519Z,11.10
2018-03-07T15:18:27.304Z,11.90
2018-03-07T15:20:57.172Z,12.40
2018-03-07T15:23:27.019Z,11.77
2018-03-07T15:25:56.964Z,10.33
2018-03-07T15:28:26.734Z,10.97
2018-03-07T15:30:56.454Z,9.07
2018-03-07T15:33:26.236Z,10.60
2018-03-07T15:35:56.005Z,14.80
2018-03-07T15:38:25.792Z,11.33
2018-03-07T15:40:55.523Z,11.10
2018-03-07T15:43:25.349Z,10.90
2018-03-07T15:45:55.196Z,13.80
2018-03-07T15:48:25.229Z,9.50
2018-03-07T15:50:55.066Z,11.20
2018-03-07T15:53:25.543Z,11.13
2018-03-07T15:55:55.364Z,10.13
2018-03-07T15:58:25.210Z,8.80
2018-03-07T16:00:54.997Z,8.00
2018-03-07T16:03:25.538Z,10.30
2018-03-07T16:05:56.148Z,6.60
2018-03-07T16:08:25.870Z,9.47
2018-03-07T16:10:55.656Z,7.37
2018-03-07T16:13:25.410Z,7.83
2018-03-07T16:15:55.988Z,5.80
2018-03-07T16:18:26.491Z,8.43
2018-03-07T16:20:56.410Z,4.87
2018-03-07T16:23:26.104Z,6.17
2018-03-07T16:25:55.969Z,8.93
2018-03-07T16:28:25.748Z,5.73
2018-03-07T16:30:55.542Z,4.60
2018-03-07T16:33:26.307Z,4.63
2018-03-07T16:35:56.166Z,5.43
2018-03-07T16:38:25.903Z,7.23
2018-03-07T16:40:55.736Z,8.30
2018-03-07T16:43:25.712Z,4.57
2018-03-07T16:45:55.552Z,4.70
2018-03-07T16:48:25.665Z,7.30
2018-03-07T16:50:55.477Z,5.60
2018-03-07T16:53:25.408Z,5.83
2018-03-07T16:55:55.125Z,4.27
2018-03-07T16:58:24.927Z,3.77
2018-03-07T17:00:54.820Z,5.37
2018-03-07T17:03:24.569Z,6.43
2018-03-07T17:05:55.104Z,7.97
2018-03-07T17:08:24.856Z,7.40
2018-03-07T17:10:55.491Z,4.70
2018-03-07T17:13:26.052Z,6.43
2018-03-07T17:15:55.849Z,6.20
2018-03-07T17:18:25.688Z,5.13
2018-03-07T17:20:56.322Z,5.30
2018-03-07T17:23:26.856Z,3.73
2018-03-07T17:25:57.608Z,3.03
2018-03-07T17:28:28.260Z,5.57
2018-03-07T17:30:58.076Z,2.60
2018-03-07T17:33:28.551Z,3.23
2018-03-07T17:35:58.299Z,2.90
2018-03-07T17:38:28.020Z,4.67
2018-03-07T17:40:57.748Z,5.40
2018-03-07T17:43:28.345Z,6.13
2018-03-07T17:45:58.131Z,3.47
2018-03-07T17:48:27.833Z,6.40
2018-03-07T17:50:57.622Z,3.47
2018-03-07T17:53:27.397Z,3.10
2018-03-07T17:55:57.227Z,4.27
2018-03-07T17:58:27.738Z,3.00
2018-03-07T18:00:57.530Z,4.20
2018-03-07T18:03:27.255Z,4.50
2018-03-07T18:05:57.093Z,6.10
2018-03-07T18:08:26.870Z,4.77
2018-03-07T18:10:57.871Z,4.90
2018-03-07T18:13:27.717Z,3.83
2018-03-07T18:15:57.583Z,4.77
2018-03-07T18:18:27.430Z,4.73
2018-03-07T18:20:57.276Z,3.20
2018-03-07T18:23:27.088Z,3.80
2018-03-07T18:25:56.963Z,2.70
2018-03-07T18:28:27.062Z,5.50
2018-03-07T18:30:56.850Z,4.30
2018-03-07T18:33:26.754Z,2.97
2018-03-07T18:35:57.326Z,3.20
2018-03-07T18:38:27.116Z,4.37
2018-03-07T18:40:57.607Z,3.53
2018-03-07T18:43:27.546Z,4.83
2018-03-07T18:45:57.261Z,4.30
2018-03-07T18:48:27.088Z,4.53
2018-03-07T18:50:56.884Z,4.13
2018-03-07T18:53:26.616Z,5.33
2018-03-07T18:55:56.405Z,3.87
2018-03-07T18:58:26.193Z,4.43
2018-03-07T19:00:56.031Z,4.47
2018-03-07T19:03:25.748Z,3.37
2018-03-07T19:05:55.521Z,5.83
2018-03-07T19:08:25.285Z,4.80
2018-03-07T19:10:55.159Z,3.60
2018-03-07T19:13:24.906Z,4.00
2018-03-07T19:15:55.990Z,4.73
2018-03-07T19:18:25.784Z,3.93
2018-03-07T19:20:55.563Z,4.77
2018-03-07T19:23:26.128Z,4.17
2018-03-07T19:25:56.021Z,4.70
2018-03-07T19:28:26.587Z,4.50
2018-03-07T19:30:56.492Z,4.93
2018-03-07T19:33:26.983Z,4.10
2018-03-07T19:35:56.766Z,4.10
2018-03-07T19:38:26.568Z,3.73
2018-03-07T19:40:57.158Z,4.30
2018-03-07T19:43:26.979Z,5.40
2018-03-07T19:45:57.085Z,6.03
2018-03-07T19:48:26.795Z,5.17
2018-03-07T19:50:57.344Z,5.67
2018-03-07T19:53:27.242Z,6.03
2018-03-07T19:55:57.051Z,6.20
2018-03-07T19:58:26.960Z,6.87
2018-03-07T20:00:56.679Z,5.40
2018-03-07T20:03:26.494Z,6.67
2018-03-07T20:05:56.247Z,7.20
2018-03-07T20:08:26.121Z,6.30
2018-03-07T20:10:55.933Z,6.30
2018-03-07T20:13:25.695Z,6.10
2018-03-07T20:15:55.453Z,9.53
2018-03-07T20:18:25.201Z,6.77
2018-03-07T20:20:55.777Z,7.07
2018-03-07T20:23:25.657Z,8.67
2018-03-07T20:25:56.291Z,8.53
2018-03-07T20:28:26.023Z,7.80
2018-03-07T20:30:56.671Z,8.50
2018-03-07T20:33:27.667Z,8.57
2018-03-07T20:35:57.407Z,9.40
2018-03-07T20:38:27.996Z,7.67
2018-03-07T20:40:58.340Z,8.87
2018-03-07T20:43:28.128Z,8.60
2018-03-07T20:45:57.897Z,10.30
2018-03-07T20:48:27.836Z,11.40
2018-03-07T20:50:57.676Z,10.30
2018-03-07T20:53:27.500Z,13.03
2018-03-07T20:55:57.269Z,9.70
2018-03-07T20:58:28.128Z,13.37
2018-03-07T21:00:58.683Z,14.23
2018-03-07T21:03:28.489Z,17.20
2018-03-07T21:05:58.204Z,14.90
2018-03-07T21:08:29.136Z,14.37
2018-03-07T21:10:58.899Z,15.10
2018-03-07T21:13:28.873Z,14.57
2018-03-07T21:15:58.783Z,16.27
2018-03-07T21:18:29.020Z,15.60
2018-03-07T21:20:58.784Z,17.00
2018-03-07T21:23:29.355Z,16.03
2018-03-07T21:25:59.127Z,14.90
2018-03-07T21:28:28.851Z,14.90
2018-03-07T21:30:58.727Z,16.23
2018-03-07T21:33:28.600Z,17.00
2018-03-07T21:35:58.783Z,15.67
2018-03-07T21:38:28.582Z,14.97
2018-03-07T21:40:59.132Z,15.43
2018-03-07T21:43:29.773Z,15.77
2018-03-07T21:46:00.319Z,15.33
2018-03-07T21:48:30.884Z,15.23
2018-03-07T21:51:01.528Z,13.40
2018-03-07T21:53:31.387Z,15.60
2018-03-07T21:56:01.149Z,15.13
2018-03-07T21:58:31.833Z,16.77
2018-03-07T22:01:01.582Z,18.63
2018-03-07T22:03:31.463Z,16.00
2018-03-07T22:06:01.466Z,16.67
2018-03-07T22:08:32.020Z,15.63
2018-03-07T22:11:01.748Z,16.97
2018-03-07T22:13:31.774Z,15.13
2018-03-07T22:16:01.612Z,16.83
2018-03-07T22:18:31.517Z,15.77
2018-03-07T22:21:01.322Z,17.70
2018-03-07T22:23:31.109Z,15.23
2018-03-07T22:26:00.912Z,15.00
2018-03-07T22:28:30.781Z,13.97
2018-03-07T22:31:00.862Z,14.17
2018-03-07T22:33:30.616Z,13.73
2018-03-07T22:36:00.388Z,14.83
2018-03-07T22:38:30.240Z,16.67
2018-03-07T22:41:00.090Z,17.77
2018-03-07T22:43:29.854Z,15.23
2018-03-07T22:46:00.355Z,16.67
2018-03-07T22:48:30.590Z,18.67
2018-03-07T22:51:00.412Z,16.97
2018-03-07T22:53:30.314Z,18.13
2018-03-07T22:56:00.208Z,16.87
2018-03-07T22:58:29.941Z,17.63
2018-03-07T23:00:59.702Z,18.67
2018-03-07T23:03:29.548Z,18.53
2018-03-07T23:05:59.273Z,18.20
2018-03-07T23:08:29.082Z,18.00
2018-03-07T23:10:58.831Z,19.93
2018-03-07T23:13:29.044Z,18.27
2018-03-07T23:15:59.030Z,19.43
2018-03-07T23:18:28.788Z,19.83
2018-03-07T23:20:58.606Z,22.83
2018-03-07T23:23:28.383Z,21.27
2018-03-07T23:25:58.094Z,24.83
2018-03-07T23:28:28.673Z,25.33
2018-03-07T23:30:58.487Z,24.10
2018-03-07T23:33:28.213Z,28.53
2018-03-07T23:35:58.017Z,27.20
2018-03-07T23:38:27.839Z,27.57
2018-03-07T23:40:58.334Z,34.90
2018-03-07T23:43:28.073Z,30.80
2018-03-07T23:45:57.834Z,30.40
2018-03-07T23:48:27.587Z,32.33
2018-03-07T23:50:57.298Z,32.73
2018-03-07T23:53:27.128Z,34.27
2018-03-07T23:55:56.848Z,34.03
2018-03-07T23:58:26.628Z,33.67
